Time;durP1;ratioP1;P1;durP2;ratioP2;P2;SDS_P1;SDS_P2;PMS_P1;PMS_P2;Temp;Humidity;BMP_temperature;BMP_pressure;BME280_temperature;BME280_humidity;BME280_pressure;Samples;Min_cycle;Max_cycle;Signal;HPM_P1;HPM_P2
2023/03/14 00:01:10;;;;;;;2.83;0.63;;;;;;;11.05;100.00;98590.81;20480243;28;20098;-73
2023/03/14 00:11:11;;;;;;;2.13;0.70;;;;;;;10.97;100.00;98574.63;20484584;28;20267;-73
2023/03/14 00:21:12;;;;;;;2.13;0.60;;;;;;;11.08;100.00;98553.19;20496120;28;20055;-73
2023/03/14 00:31:14;;;;;;;0.90;0.50;;;;;;;11.19;100.00;98554.34;20494790;28;20047;-73
2023/03/14 00:41:15;;;;;;;2.33;0.70;;;;;;;11.17;100.00;98561.44;20494937;29;20051;-73
2023/03/14 00:51:16;;;;;;;2.95;1.02;;;;;;;11.19;100.00;98574.47;20493513;28;20091;-74
2023/03/14 01:01:18;;;;;;;1.65;0.70;;;;;;;11.17;100.00;98586.81;20493033;28;20070;-74
2023/03/14 01:11:20;;;;;;;4.32;0.60;;;;;;;11.07;100.00;98572.41;20492271;29;20073;-73
2023/03/14 01:21:21;;;;;;;1.90;0.52;;;;;;;10.98;100.00;98571.94;20491362;28;20055;-74
2023/03/14 01:31:22;;;;;;;2.42;0.85;;;;;;;10.93;100.00;98563.47;20491074;28;20062;-73
2023/03/14 01:41:23;;;;;;;3.95;0.90;;;;;;;10.77;100.00;98558.06;20490298;28;20079;-73
2023/03/14 01:51:25;;;;;;;2.97;1.00;;;;;;;10.79;100.00;98516.13;20489251;28;20081;-73
2023/03/14 02:01:26;;;;;;;2.97;0.88;;;;;;;10.62;100.00;98509.03;20489030;28;20070;-73
2023/03/14 02:11:27;;;;;;;2.65;0.80;;;;;;;10.45;100.00;98491.50;20492362;28;20150;-73
2023/03/14 02:21:28;;;;;;;3.80;0.80;;;;;;;10.51;100.00;98486.00;20488716;28;20515;-77
2023/03/14 02:31:30;;;;;;;3.13;0.80;;;;;;;10.33;100.00;98463.28;20486196;28;20515;-75
2023/03/14 02:41:31;;;;;;;2.53;1.05;;;;;;;10.38;100.00;98450.00;20485518;29;20093;-76
2023/03/14 02:51:32;;;;;;;3.78;0.90;;;;;;;10.24;100.00;98432.31;20490831;28;20137;-75
2023/03/14 03:01:33;;;;;;;2.45;0.70;;;;;;;10.27;100.00;98419.94;20484482;28;20085;-74
2023/03/14 03:11:35;;;;;;;4.78;1.00;;;;;;;10.21;100.00;98395.81;20484788;28;20122;-75
2023/03/14 03:21:36;;;;;;;4.30;1.05;;;;;;;10.22;100.00;98379.19;20483676;28;20126;-75
2023/03/14 03:31:37;;;;;;;3.80;1.00;;;;;;;10.17;100.00;98353.25;20481977;28;20048;-74
2023/03/14 03:41:39;;;;;;;3.45;0.93;;;;;;;10.23;100.00;98341.66;20482467;29;20055;-74
2023/03/14 03:51:40;;;;;;;4.75;1.23;;;;;;;10.05;100.00;98343.38;20495783;28;20114;-74
2023/03/14 04:01:41;;;;;;;2.03;0.63;;;;;;;10.10;100.00;98327.47;20497475;28;20063;-74
2023/03/14 04:11:43;;;;;;;6.35;1.00;;;;;;;10.05;100.00;98316.38;20497149;28;20500;-74
2023/03/14 04:21:45;;;;;;;4.43;0.98;;;;;;;9.95;100.00;98313.34;20496301;28;20063;-74
2023/03/14 04:31:46;;;;;;;3.03;1.00;;;;;;;9.77;100.00;98302.84;20497389;28;20672;-74
2023/03/14 04:41:47;;;;;;;6.30;0.88;;;;;;;9.79;100.00;98281.00;20496682;29;20058;-73
2023/03/14 04:51:50;;;;;;;5.00;0.90;;;;;;;9.69;100.00;98283.19;20499827;28;20086;-73
2023/03/14 05:01:51;;;;;;;8.48;2.58;;;;;;;9.95;100.00;98289.81;20492589;28;20157;-73
2023/03/14 05:11:53;;;;;;;6.88;1.20;;;;;;;10.17;100.00;98282.66;20491524;28;20047;-74
2023/03/14 05:21:54;;;;;;;4.22;0.82;;;;;;;10.11;100.00;98274.25;20491712;28;20139;-73
2023/03/14 05:31:55;;;;;;;5.55;1.00;;;;;;;10.14;100.00;98247.94;20490670;28;20085;-73
2023/03/14 05:41:57;;;;;;;5.38;0.80;;;;;;;9.97;100.00;98233.09;20490233;28;20420;-73
2023/03/14 05:51:58;;;;;;;2.78;0.70;;;;;;;9.77;100.00;98223.56;20489270;28;20092;-74
2023/03/14 06:01:59;;;;;;;8.13;1.42;;;;;;;9.69;100.00;98215.25;20488819;28;20511;-74
2023/03/14 06:12:01;;;;;;;8.32;2.22;;;;;;;9.67;100.00;98224.91;20485677;28;20079;-73
2023/03/14 06:22:02;;;;;;;4.53;0.77;;;;;;;9.60;100.00;98218.31;20487760;28;20051;-74
2023/03/14 06:32:05;;;;;;;4.90;1.05;;;;;;;9.51;100.00;98216.97;20486984;28;20055;-73
2023/03/14 06:42:06;;;;;;;4.80;1.08;;;;;;;9.93;100.00;98214.09;20485432;28;20051;-74
2023/03/14 06:52:07;;;;;;;8.23;1.80;;;;;;;10.16;100.00;98219.97;20485287;28;20047;-74
2023/03/14 07:02:08;;;;;;;3.97;0.80;;;;;;;10.42;100.00;98231.78;20479755;28;20392;-73
2023/03/14 07:12:10;;;;;;;5.22;0.73;;;;;;;10.62;100.00;98254.34;20482598;28;20054;-74
2023/03/14 07:22:11;;;;;;;5.85;1.50;;;;;;;10.95;100.00;98276.19;20483502;28;20059;-74
2023/03/14 07:32:14;;;;;;;4.75;1.02;;;;;;;11.14;100.00;98277.88;20482385;28;20456;-75
2023/03/14 07:42:15;;;;;;;3.92;0.88;;;;;;;11.47;100.00;98270.84;20482327;29;20051;-75
2023/03/14 07:52:17;;;;;;;3.88;0.73;;;;;;;11.60;100.00;98276.28;20565473;23;20053;-69
2023/03/14 08:02:21;;;;;;;2.97;0.70;;;;;;;11.36;100.00;98288.94;20773963;28;20085;-70
2023/03/14 08:12:23;;;;;;;2.88;0.90;;;;;;;11.09;100.00;98314.75;20741935;28;20046;-68
2023/03/14 08:22:24;;;;;;;6.05;1.02;;;;;;;10.88;100.00;98314.09;20768477;28;20060;-68
2023/03/14 08:32:26;;;;;;;4.38;0.70;;;;;;;10.94;100.00;98305.94;20760782;28;20085;-68
2023/03/14 08:42:28;;;;;;;2.90;0.73;;;;;;;11.14;100.00;98304.91;20775339;28;20084;-68
2023/03/14 08:52:30;;;;;;;3.58;0.77;;;;;;;11.38;100.00;98310.63;20775946;28;20056;-68
2023/03/14 09:02:32;;;;;;;1.45;0.60;;;;;;;10.89;100.00;98326.25;20778139;28;20079;-68
2023/03/14 09:12:34;;;;;;;2.65;0.98;;;;;;;11.01;100.00;98328.25;20776372;28;20534;-68
2023/03/14 09:22:35;;;;;;;1.58;0.43;;;;;;;11.46;100.00;98316.34;20753128;28;20077;-67
2023/03/14 09:32:36;;;;;;;2.47;0.68;;;;;;;11.67;100.00;98321.34;20752034;28;20060;-68
2023/03/14 09:42:40;;;;;;;3.15;0.88;;;;;;;11.26;100.00;98355.81;20759975;28;20075;-67
2023/03/14 09:52:41;;;;;;;1.67;0.65;;;;;;;11.57;100.00;98355.06;20750810;28;20111;-68
2023/03/14 10:02:42;;;;;;;1.80;0.50;;;;;;;11.64;100.00;98358.22;20754408;28;20058;-69
2023/03/14 10:12:44;;;;;;;3.42;0.65;;;;;;;11.65;100.00;98352.06;20736769;28;20577;-71
2023/03/14 10:22:46;;;;;;;3.08;0.80;;;;;;;11.30;100.00;98367.81;20727315;28;20061;-71
2023/03/14 10:32:48;;;;;;;3.03;0.35;;;;;;;10.99;100.00;98387.72;20754259;28;20116;-75
2023/03/14 10:42:51;;;;;;;4.25;1.15;;;;;;;10.84;100.00;98393.72;20748845;28;20050;-71
2023/03/14 10:52:53;;;;;;;2.13;0.85;;;;;;;10.79;100.00;98400.94;20761752;28;20054;-70
2023/03/14 11:03:03;;;;;;;2.80;0.88;;;;;;;10.85;100.00;98412.88;20744879;28;20050;-69
2023/03/14 11:13:06;;;;;;;2.78;0.85;;;;;;;11.05;100.00;98418.81;20756685;28;20099;-71
2023/03/14 11:23:08;;;;;;;3.80;0.60;;;;;;;10.65;100.00;98463.56;20768252;28;20055;-69
2023/03/14 11:33:09;;;;;;;1.60;0.50;;;;;;;10.33;100.00;98519.97;20756995;28;20053;-69
2023/03/14 11:43:10;;;;;;;2.28;0.60;;;;;;;9.63;100.00;98583.94;20749901;28;20067;-69
2023/03/14 11:53:12;;;;;;;1.92;0.57;;;;;;;9.09;100.00;98642.66;20741246;28;20060;-69
2023/03/14 12:03:13;;;;;;;1.90;0.70;;;;;;;9.03;100.00;98695.13;20762818;28;20131;-70
2023/03/14 12:13:14;;;;;;;2.40;0.80;;;;;;;9.21;100.00;98716.19;20769131;28;20663;-70
2023/03/14 12:23:16;;;;;;;4.32;1.10;;;;;;;9.64;100.00;98745.91;20768292;28;20484;-71
2023/03/14 12:33:18;;;;;;;3.78;1.02;;;;;;;9.62;100.00;98734.66;20768998;28;20054;-71
2023/03/14 12:43:19;;;;;;;2.88;0.90;;;;;;;9.89;100.00;98781.56;20779724;28;20096;-71
2023/03/14 12:53:20;;;;;;;2.63;0.70;;;;;;;10.15;98.06;98799.66;20777253;28;20050;-68
2023/03/14 13:03:22;;;;;;;5.72;0.82;;;;;;;10.16;80.92;98838.00;20767655;28;20053;-70
2023/03/14 13:13:25;;;;;;;4.07;0.70;;;;;;;9.94;68.82;98861.50;20761886;28;20049;-69
2023/03/14 13:23:26;;;;;;;2.90;0.70;;;;;;;9.96;73.28;98887.59;20758704;28;20124;-68
2023/03/14 13:33:28;;;;;;;3.50;0.60;;;;;;;9.93;66.61;98892.94;20776235;28;20514;-66
2023/03/14 13:43:32;;;;;;;2.22;0.68;;;;;;;9.76;66.12;98927.53;20772485;28;20046;-67
2023/03/14 13:53:33;;;;;;;2.33;0.53;;;;;;;9.85;66.05;98960.34;20768212;28;20061;-67
2023/03/14 14:03:35;;;;;;;2.65;0.60;;;;;;;10.39;62.49;98988.88;20768359;28;20215;-67
2023/03/14 14:13:36;;;;;;;1.33;0.50;;;;;;;10.44;62.00;99018.34;20768766;28;20057;-67
2023/03/14 14:23:38;;;;;;;4.80;0.80;;;;;;;10.20;61.34;99021.81;20777151;28;20053;-67
2023/03/14 14:33:40;;;;;;;6.68;0.80;;;;;;;10.38;61.70;99057.81;20760211;28;20054;-66
2023/03/14 14:43:41;;;;;;;5.03;0.95;;;;;;;10.79;60.20;99079.00;20766578;28;20065;-66
2023/03/14 14:53:42;;;;;;;4.13;0.80;;;;;;;10.36;61.16;99091.03;20767081;28;20095;-67
2023/03/14 15:03:43;;;;;;;4.63;0.90;;;;;;;10.23;63.76;99105.41;20770193;28;20045;-66
2023/03/14 15:13:45;;;;;;;5.82;1.10;;;;;;;9.93;66.27;99112.56;20768428;28;20472;-66
2023/03/14 15:23:46;;;;;;;9.68;0.90;;;;;;;10.15;66.13;99121.38;20759763;28;20490;-67
2023/03/14 15:33:48;;;;;;;6.30;0.82;;;;;;;9.93;69.03;99146.56;20759141;28;20061;-67
2023/03/14 15:43:49;;;;;;;11.30;1.27;;;;;;;9.65;69.15;99147.44;20775055;28;20120;-66
2023/03/14 15:53:51;;;;;;;8.05;1.95;;;;;;;9.65;69.53;99149.22;20787336;28;20399;-66
2023/03/14 16:03:52;;;;;;;7.30;1.40;;;;;;;9.58;69.88;99171.19;20772666;28;20052;-69
2023/03/14 16:13:54;;;;;;;5.07;0.98;;;;;;;9.42;68.65;99200.41;20776970;28;20076;-67
2023/03/14 16:23:55;;;;;;;6.55;1.40;;;;;;;9.02;69.07;99197.28;20778065;28;20062;-67
2023/03/14 16:33:56;;;;;;;4.82;0.90;;;;;;;8.62;72.46;99216.63;20781336;28;20137;-66
2023/03/14 16:43:58;;;;;;;5.72;0.98;;;;;;;8.46;75.02;99237.91;20774621;28;20058;-67
2023/03/14 16:53:59;;;;;;;5.00;1.33;;;;;;;8.43;78.45;99278.84;20773729;28;20077;-68
2023/03/14 17:04:00;;;;;;;6.72;1.10;;;;;;;8.26;80.88;99297.50;20766106;28;20427;-68
2023/03/14 17:14:02;;;;;;;7.97;1.70;;;;;;;8.14;83.67;99300.41;20764810;28;20061;-67
2023/03/14 17:24:03;;;;;;;5.30;1.00;;;;;;;8.08;88.16;99316.19;20764806;28;20145;-67
2023/03/14 17:34:04;;;;;;;4.68;0.80;;;;;;;7.91;91.27;99335.69;20757059;28;20054;-68
2023/03/14 17:44:05;;;;;;;6.30;1.40;;;;;;;7.80;94.81;99360.25;20738598;28;20107;-67
2023/03/14 17:54:07;;;;;;;13.35;2.35;;;;;;;7.54;100.00;99386.84;20754123;28;20127;-67
2023/03/14 18:04:08;;;;;;;6.53;2.20;;;;;;;7.45;100.00;99422.59;20740898;28;20084;-67
2023/03/14 18:14:14;;;;;;;7.03;1.52;;;;;;;7.23;100.00;99441.22;20755149;28;20498;-67
2023/03/14 18:24:16;;;;;;;6.47;2.00;;;;;;;7.19;100.00;99454.31;20748882;28;20057;-68
2023/03/14 18:34:17;;;;;;;4.82;1.52;;;;;;;7.00;100.00;99473.72;20758738;28;20057;-66
2023/03/14 18:44:18;;;;;;;5.18;1.27;;;;;;;6.81;100.00;99498.31;20762818;28;20057;-67
2023/03/14 18:54:20;;;;;;;3.42;1.15;;;;;;;6.76;100.00;99516.59;20758906;28;20049;-67
2023/03/14 19:04:21;;;;;;;4.82;1.38;;;;;;;6.83;100.00;99559.84;20748164;28;20112;-67
2023/03/14 19:14:23;;;;;;;5.22;1.60;;;;;;;6.73;100.00;99555.63;20747849;28;20050;-68
2023/03/14 19:24:24;;;;;;;5.70;1.33;;;;;;;6.63;100.00;99567.91;20756757;28;20631;-67
2023/03/14 19:34:25;;;;;;;3.67;1.00;;;;;;;6.58;100.00;99577.50;20760183;28;20049;-68
2023/03/14 19:44:29;;;;;;;3.50;1.00;;;;;;;6.50;100.00;99587.16;20755032;28;20107;-68
2023/03/14 19:54:31;;;;;;;3.27;1.10;;;;;;;6.56;100.00;99594.00;20745138;28;20545;-67
2023/03/14 20:04:32;;;;;;;4.28;1.13;;;;;;;6.48;100.00;99607.13;20753265;28;20100;-68
2023/03/14 20:14:34;;;;;;;4.82;1.10;;;;;;;6.33;100.00;99617.69;20755658;28;20058;-67
2023/03/14 20:24:35;;;;;;;5.20;1.63;;;;;;;6.13;100.00;99610.09;20750818;28;20111;-67
2023/03/14 20:34:37;;;;;;;6.85;1.52;;;;;;;6.11;100.00;99643.03;20754753;28;20459;-67
2023/03/14 20:44:39;;;;;;;5.38;1.17;;;;;;;6.05;100.00;99674.28;20764956;28;20057;-67
2023/03/14 20:54:40;;;;;;;3.50;1.00;;;;;;;6.00;100.00;99721.13;20769727;28;20452;-67
2023/03/14 21:04:42;;;;;;;9.57;3.40;;;;;;;2.15;100.00;99815.03;20766619;28;20164;-70
2023/03/14 21:14:43;;;;;;;10.30;3.47;;;;;;;2.02;100.00;99816.66;20765551;28;20133;-70
2023/03/14 21:24:45;;;;;;;7.85;2.85;;;;;;;2.34;100.00;99828.13;20760271;28;20057;-69
2023/03/14 21:34:50;;;;;;;9.88;2.92;;;;;;;2.46;100.00;99856.66;20762316;28;20049;-71
2023/03/14 21:44:51;;;;;;;7.68;2.42;;;;;;;2.56;100.00;99881.72;20765389;28;20054;-70
2023/03/14 21:54:52;;;;;;;9.23;2.40;;;;;;;2.59;100.00;99905.00;20769212;28;20050;-70
2023/03/14 22:04:53;;;;;;;7.38;1.95;;;;;;;2.52;100.00;99892.88;20754243;28;20116;-69
2023/03/14 22:14:55;;;;;;;7.47;1.60;;;;;;;2.58;100.00;99905.81;20760640;28;20054;-68
2023/03/14 22:24:56;;;;;;;7.82;1.65;;;;;;;2.58;100.00;99927.38;20761539;28;20054;-68
2023/03/14 22:34:58;;;;;;;5.75;2.00;;;;;;;2.69;100.00;99935.25;20762118;28;20083;-68
2023/03/14 22:44:59;;;;;;;5.55;1.77;;;;;;;2.67;100.00;99957.59;20761506;28;20045;-68
2023/03/14 22:55:00;;;;;;;8.57;1.90;;;;;;;2.73;100.00;99988.69;20751796;28;20054;-69
2023/03/14 23:05:02;;;;;;;7.43;2.00;;;;;;;2.81;100.00;100015.47;20760440;28;20132;-69
2023/03/14 23:15:06;;;;;;;7.90;2.35;;;;;;;2.87;100.00;100044.81;20770147;28;20421;-69
2023/03/14 23:25:07;;;;;;;6.87;1.87;;;;;;;2.93;100.00;100053.53;20766240;28;20053;-69
2023/03/14 23:35:08;;;;;;;8.13;2.28;;;;;;;2.96;100.00;100081.09;20762292;28;20637;-69
2023/03/14 23:45:12;;;;;;;10.93;3.13;;;;;;;3.00;100.00;100090.63;20761389;28;20050;-69
2023/03/14 23:55:14;;;;;;;9.52;2.67;;;;;;;2.92;100.00;100103.47;20767974;28;20508;-69
